American Glory — WDA8860 — position and weather

sailwx.info

Track history (hours):
 
Tides and Currents Weather Stations Pressure Air Temp Water Temp Dewpoint Dewpoint Depression Visibility Wind Speed Wind Dir Waves Ship Positions

American Glory

More information available from US FCC via Universal Licensing System and Coast Guard Vessel Documentation Center.

Last reported at 2014-Sep-03 01:19 UTC. Time now 2014-Sep-03 02:07 UTC.
Position N 41°49' W 071°24'.

Length 54 m; draft 2.1 m.

Type: Passenger vessel. MMSI: 366858820.

Date/timePositionNaut miles runAvg speedWind from/ knotsBaromVisibWave heightAir tempDewpointWater temp
2014-Sep-03 01:19N 41°49' W 071°24'0 0.0
2014-Sep-03 00:33N 41°49' W 071°24'0 0.0
2014-Sep-02 23:32N 41°49' W 071°24'0 0.0
2014-Sep-02 22:19N 41°49' W 071°24'0 0.0
2014-Sep-02 17:05N 41°49' W 071°24'0 0.0
2014-Sep-02 16:09N 41°49' W 071°24'0 0.0
2014-Sep-02 15:27N 41°49' W 071°24'0 0.0
2014-Sep-02 13:29N 41°49' W 071°24'0 0.0
2014-Sep-02 12:23N 41°49' W 071°24'0 0.0
2014-Sep-02 11:16N 41°49' W 071°24'0 0.0
2014-Sep-02 10:04N 41°49' W 071°24'0 0.0
2014-Sep-02 08:18N 41°49' W 071°24'0 0.0
2014-Sep-02 04:19N 41°49' W 071°24'0 0.0
2014-Sep-02 03:33N 41°49' W 071°24'0 0.0
2014-Sep-02 01:29N 41°49' W 071°24'0 0.0
2014-Sep-01 23:18N 41°49' W 071°24'0 0.0
2014-Sep-01 21:26N 41°49' W 071°24'0 0.0
2014-Sep-01 20:30N 41°49' W 071°24'0 0.0
2014-Sep-01 19:15N 41°49' W 071°24'4 5.3
2014-Sep-01 18:33N 41°45' W 071°23'9 8.8
2014-Sep-01 17:32N 41°38' W 071°16'4 3.9
2014-Sep-01 16:33N 41°35' W 071°13'9 8.7
2014-Sep-01 15:33N 41°26' W 071°11'8 8.3
2014-Sep-01 14:33N 41°27' W 070°60'9 8.1
2014-Sep-01 13:25N 41°26' W 070°47'8 9.3
2014-Sep-01 12:33N 41°29' W 070°38'2 0.2
2014-Aug-31 23:23N 41°27' W 070°36'0 0.0
2014-Aug-31 22:23N 41°27' W 070°36'0 0.0
2014-Aug-31 21:29N 41°27' W 070°36'0 0.0
2014-Aug-31 14:17N 41°27' W 070°36'0 0.0
2014-Aug-31 13:29N 41°27' W 070°36'0 0.0
2014-Aug-31 12:32N 41°27' W 070°36'0 0.0
2014-Aug-31 11:32N 41°27' W 070°36'0 0.0
2014-Aug-31 10:32N 41°27' W 070°36'0 0.0
2014-Aug-31 09:23N 41°27' W 070°36'0 0.0
2014-Aug-31 08:23N 41°27' W 070°36'0 0.0
2014-Aug-31 07:32N 41°27' W 070°36'0 0.0
2014-Aug-31 06:23N 41°27' W 070°36'0 0.0
2014-Aug-31 04:23N 41°27' W 070°36'0 0.0
2014-Aug-31 02:29N 41°27' W 070°36'0 0.0
2014-Aug-31 01:20N 41°27' W 070°36'0 0.0
2014-Aug-31 00:32N 41°27' W 070°36'1 0.6
2014-Aug-30 23:33N 41°28' W 070°35'1010.2
2014-Aug-30 22:33N 41°27' W 070°22'1010.3
2014-Aug-30 21:33N 41°23' W 070°09'6 5.0
2014-Aug-30 20:16N 41°17' W 070°05'0 0.0
2014-Aug-30 19:22N 41°17' W 070°05'0 0.0
2014-Aug-30 18:25N 41°17' W 070°05'0 0.0
2014-Aug-30 17:28N 41°17' W 070°05'0 0.0
2014-Aug-30 16:25N 41°17' W 070°05'0 0.0
2014-Aug-30 15:31N 41°17' W 070°05'0 0.0
2014-Aug-30 14:31N 41°17' W 070°05'0 0.0
2014-Aug-30 12:25N 41°17' W 070°05'0 0.0
2014-Aug-30 11:30N 41°17' W 070°05'3 2.7
2014-Aug-30 10:32N 41°20' W 070°07'9 8.8
2014-Aug-30 09:32N 41°26' W 070°15'9 8.7
2014-Aug-30 08:33N 41°29' W 070°26'9 8.7
2014-Aug-30 07:33N 41°29' W 070°37'10 9.5
2014-Aug-30 06:33N 41°26' W 070°49'8 8.3
2014-Aug-30 05:33N 41°34' W 070°44'10 9.9
2014-Aug-30 04:33N 41°43' W 070°39'53 7.6
2014-Aug-29 21:33N 42°36' W 070°40'0 0.0
2014-Aug-29 10:32N 42°36' W 070°40'12 6.3
2014-Aug-29 08:33N 42°46' W 070°30'  
Track history (hours):
 
Tides and Currents Weather Stations Pressure Air Temp Water Temp Dewpoint Dewpoint Depression Visibility Wind Speed Wind Dir Waves Ship Positions

American Glory

More information available from US FCC via Universal Licensing System and Coast Guard Vessel Documentation Center.

Last reported at 2014-Sep-03 01:19 UTC. Time now 2014-Sep-03 02:07 UTC.
Position N 41°49' W 071°24'.

Length 54 m; draft 2.1 m.

Type: Passenger vessel. MMSI: 366858820.

Date/timePositionNaut miles runAvg speedWind from/ knotsBaromVisibWave heightAir tempDewpointWater temp
2014-Sep-03 01:19N 41°49' W 071°24'0 0.0
2014-Sep-03 00:33N 41°49' W 071°24'0 0.0
2014-Sep-02 23:32N 41°49' W 071°24'0 0.0
2014-Sep-02 22:19N 41°49' W 071°24'0 0.0
2014-Sep-02 17:05N 41°49' W 071°24'0 0.0
2014-Sep-02 16:09N 41°49' W 071°24'0 0.0
2014-Sep-02 15:27N 41°49' W 071°24'0 0.0
2014-Sep-02 13:29N 41°49' W 071°24'0 0.0
2014-Sep-02 12:23N 41°49' W 071°24'0 0.0
2014-Sep-02 11:16N 41°49' W 071°24'0 0.0
2014-Sep-02 10:04N 41°49' W 071°24'0 0.0
2014-Sep-02 08:18N 41°49' W 071°24'0 0.0
2014-Sep-02 04:19N 41°49' W 071°24'0 0.0
2014-Sep-02 03:33N 41°49' W 071°24'0 0.0
2014-Sep-02 01:29N 41°49' W 071°24'0 0.0
2014-Sep-01 23:18N 41°49' W 071°24'0 0.0
2014-Sep-01 21:26N 41°49' W 071°24'0 0.0
2014-Sep-01 20:30N 41°49' W 071°24'0 0.0
2014-Sep-01 19:15N 41°49' W 071°24'4 5.3
2014-Sep-01 18:33N 41°45' W 071°23'9 8.8
2014-Sep-01 17:32N 41°38' W 071°16'4 3.9
2014-Sep-01 16:33N 41°35' W 071°13'9 8.7
2014-Sep-01 15:33N 41°26' W 071°11'8 8.3
2014-Sep-01 14:33N 41°27' W 070°60'9 8.1
2014-Sep-01 13:25N 41°26' W 070°47'8 9.3
2014-Sep-01 12:33N 41°29' W 070°38'2 0.2
2014-Aug-31 23:23N 41°27' W 070°36'0 0.0
2014-Aug-31 22:23N 41°27' W 070°36'0 0.0
2014-Aug-31 21:29N 41°27' W 070°36'0 0.0
2014-Aug-31 14:17N 41°27' W 070°36'0 0.0
2014-Aug-31 13:29N 41°27' W 070°36'0 0.0
2014-Aug-31 12:32N 41°27' W 070°36'0 0.0
2014-Aug-31 11:32N 41°27' W 070°36'0 0.0
2014-Aug-31 10:32N 41°27' W 070°36'0 0.0
2014-Aug-31 09:23N 41°27' W 070°36'0 0.0
2014-Aug-31 08:23N 41°27' W 070°36'0 0.0
2014-Aug-31 07:32N 41°27' W 070°36'0 0.0
2014-Aug-31 06:23N 41°27' W 070°36'0 0.0
2014-Aug-31 04:23N 41°27' W 070°36'0 0.0
2014-Aug-31 02:29N 41°27' W 070°36'0 0.0
2014-Aug-31 01:20N 41°27' W 070°36'0 0.0
2014-Aug-31 00:32N 41°27' W 070°36'1 0.6
2014-Aug-30 23:33N 41°28' W 070°35'1010.2
2014-Aug-30 22:33N 41°27' W 070°22'1010.3
2014-Aug-30 21:33N 41°23' W 070°09'6 5.0
2014-Aug-30 20:16N 41°17' W 070°05'0 0.0
2014-Aug-30 19:22N 41°17' W 070°05'0 0.0
2014-Aug-30 18:25N 41°17' W 070°05'0 0.0
2014-Aug-30 17:28N 41°17' W 070°05'0 0.0
2014-Aug-30 16:25N 41°17' W 070°05'0 0.0
2014-Aug-30 15:31N 41°17' W 070°05'0 0.0
2014-Aug-30 14:31N 41°17' W 070°05'0 0.0
2014-Aug-30 12:25N 41°17' W 070°05'0 0.0
2014-Aug-30 11:30N 41°17' W 070°05'3 2.7
2014-Aug-30 10:32N 41°20' W 070°07'9 8.8
2014-Aug-30 09:32N 41°26' W 070°15'9 8.7
2014-Aug-30 08:33N 41°29' W 070°26'9 8.7
2014-Aug-30 07:33N 41°29' W 070°37'10 9.5
2014-Aug-30 06:33N 41°26' W 070°49'8 8.3
2014-Aug-30 05:33N 41°34' W 070°44'10 9.9
2014-Aug-30 04:33N 41°43' W 070°39'53 7.6
2014-Aug-29 21:33N 42°36' W 070°40'0 0.0
2014-Aug-29 10:32N 42°36' W 070°40'12 6.3
2014-Aug-29 08:33N 42°46' W 070°30'  

Dump ship's entire track history